createdAt,value
2022-08-17T00:02:25.401Z,23.29
2022-08-17T00:04:55.195Z,23.30
2022-08-17T00:07:22.302Z,23.28
2022-08-17T00:09:48.986Z,23.29
2022-08-17T00:12:41.694Z,23.33
2022-08-17T00:15:02.619Z,23.32
2022-08-17T00:17:29.306Z,23.32
2022-08-17T00:19:55.893Z,23.33
2022-08-17T00:22:34.814Z,23.33
2022-08-17T00:25:07.228Z,23.34
2022-08-17T00:27:33.908Z,23.33
2022-08-17T00:30:00.616Z,23.32
2022-08-17T00:33:13.569Z,23.31
2022-08-17T00:35:17.588Z,23.28
2022-08-17T00:37:44.617Z,23.26
2022-08-17T00:40:14.569Z,23.24
2022-08-17T00:42:43.412Z,23.24
2022-08-17T00:45:13.679Z,23.24
2022-08-17T00:47:41.828Z,23.21
2022-08-17T00:50:13.612Z,23.22
2022-08-17T00:52:48.305Z,23.24
2022-08-17T00:55:15.073Z,23.26
2022-08-17T00:57:45.389Z,23.27
2022-08-17T01:00:17.966Z,23.26
2022-08-17T01:02:46.679Z,23.25
2022-08-17T01:05:19.854Z,23.28
2022-08-17T01:07:50.969Z,23.31
2022-08-17T01:10:58.842Z,23.31
2022-08-17T01:13:10.273Z,23.29
2022-08-17T01:15:46.020Z,23.24
2022-08-17T01:18:13.846Z,23.21
2022-08-17T01:21:04.195Z,23.16
2022-08-17T01:23:30.982Z,23.10
2022-08-17T01:26:01.867Z,23.07
2022-08-17T01:28:52.637Z,23.08
2022-08-17T01:31:20.520Z,23.05
2022-08-17T01:33:47.560Z,23.04
2022-08-17T01:36:14.151Z,23.02
2022-08-17T01:38:40.899Z,23.04
2022-08-17T01:41:12.486Z,23.04
2022-08-17T01:43:49.637Z,23.04
2022-08-17T01:46:21.842Z,23.02
2022-08-17T01:48:48.682Z,22.99
2022-08-17T01:51:16.058Z,22.99
2022-08-17T01:53:47.482Z,22.95
2022-08-17T01:56:19.521Z,22.89
2022-08-17T01:58:46.927Z,22.88
2022-08-17T02:01:18.863Z,22.81
2022-08-17T02:03:56.195Z,22.69
2022-08-17T02:06:52.661Z,22.61
2022-08-17T02:09:29.649Z,22.59
2022-08-17T02:11:58.768Z,22.51
2022-08-17T02:14:26.045Z,22.47
2022-08-17T02:16:53.804Z,22.46
2022-08-17T02:19:21.904Z,22.44
2022-08-17T02:21:51.161Z,22.45
2022-08-17T02:25:00.026Z,22.43
2022-08-17T02:27:29.323Z,22.42
2022-08-17T02:29:55.934Z,22.36
2022-08-17T02:32:27.349Z,22.37
2022-08-17T02:34:54.662Z,22.35
2022-08-17T02:37:21.321Z,22.30
2022-08-17T02:39:47.935Z,22.23
2022-08-17T02:42:15.068Z,22.18
2022-08-17T02:44:42.410Z,22.12
2022-08-17T02:47:09.949Z,22.08
2022-08-17T02:49:37.752Z,22.06
2022-08-17T02:52:07.476Z,22.05
2022-08-17T02:54:41.233Z,22.04
2022-08-17T02:57:10.124Z,22.04
2022-08-17T02:59:46.766Z,22.06
2022-08-17T03:02:15.490Z,22.08
2022-08-17T03:04:42.206Z,22.06
2022-08-17T03:07:08.825Z,22.02
2022-08-17T03:09:35.524Z,22.01
2022-08-17T03:12:14.368Z,21.99
2022-08-17T03:14:42.063Z,21.95
2022-08-17T03:17:10.217Z,21.91
2022-08-17T03:19:37.715Z,21.89
2022-08-17T03:22:36.985Z,21.86
2022-08-17T03:24:56.315Z,21.81
2022-08-17T03:27:22.963Z,21.73
2022-08-17T03:29:50.551Z,21.70
2022-08-17T03:32:17.572Z,21.67
2022-08-17T03:34:44.404Z,21.66
2022-08-17T03:37:10.983Z,21.62
2022-08-17T03:39:38.158Z,21.61
2022-08-17T03:42:32.084Z,21.57
2022-08-17T03:45:00.195Z,21.56
2022-08-17T03:47:45.683Z,21.55
2022-08-17T03:50:32.035Z,21.56
2022-08-17T03:53:17.658Z,21.59
2022-08-17T03:56:03.511Z,21.60
2022-08-17T03:58:30.253Z,21.62
2022-08-17T04:00:56.976Z,21.61
2022-08-17T04:03:23.589Z,21.61
2022-08-17T04:05:50.229Z,21.60
2022-08-17T04:08:16.796Z,21.61
2022-08-17T04:10:45.098Z,21.60
2022-08-17T04:13:12.345Z,21.60
2022-08-17T04:15:39.007Z,21.59
2022-08-17T04:18:07.436Z,21.59
2022-08-17T04:20:34.279Z,21.58
2022-08-17T04:23:04.958Z,21.60
2022-08-17T04:25:34.174Z,21.61
2022-08-17T04:28:01.249Z,21.59
2022-08-17T04:30:32.147Z,21.58
2022-08-17T04:33:06.462Z,21.58
2022-08-17T04:35:39.706Z,21.60
2022-08-17T04:38:08.180Z,21.62
2022-08-17T04:40:53.737Z,21.61
2022-08-17T04:43:22.936Z,21.66
2022-08-17T04:45:56.208Z,21.66
2022-08-17T04:48:45.884Z,21.64
2022-08-17T04:51:18.412Z,21.65
2022-08-17T04:53:54.154Z,21.65
2022-08-17T04:56:21.779Z,21.65
2022-08-17T04:58:51.471Z,21.67
2022-08-17T05:01:23.574Z,21.72
2022-08-17T05:03:53.295Z,21.71
2022-08-17T05:06:20.365Z,21.72
2022-08-17T05:08:46.960Z,21.72
2022-08-17T05:11:14.125Z,21.73
2022-08-17T05:13:40.881Z,21.73
2022-08-17T05:16:09.122Z,21.73
2022-08-17T05:18:37.275Z,21.75
2022-08-17T05:21:03.998Z,21.76
2022-08-17T05:23:32.006Z,21.76
2022-08-17T05:26:18.610Z,21.77
2022-08-17T05:28:53.954Z,21.80
2022-08-17T05:31:21.300Z,21.80
2022-08-17T05:33:49.459Z,21.81
2022-08-17T05:36:41.831Z,21.84
2022-08-17T05:39:02.945Z,21.87
2022-08-17T05:41:29.564Z,21.88
2022-08-17T05:43:56.612Z,21.93
2022-08-17T05:46:28.852Z,21.98
2022-08-17T05:49:04.548Z,22.02
2022-08-17T05:51:33.913Z,22.05
2022-08-17T05:54:03.163Z,22.06
2022-08-17T05:56:57.771Z,22.11
2022-08-17T05:59:55.250Z,22.13
2022-08-17T06:02:33.580Z,22.19
2022-08-17T06:05:18.809Z,22.26
2022-08-17T06:08:25.841Z,22.40
2022-08-17T06:10:58.266Z,22.59
2022-08-17T06:13:46.749Z,22.79
2022-08-17T06:16:31.173Z,23.01
2022-08-17T06:19:10.025Z,23.19
2022-08-17T06:21:41.639Z,23.45
2022-08-17T06:24:20.241Z,23.83
2022-08-17T06:26:47.836Z,24.04
2022-08-17T06:29:37.279Z,24.11
2022-08-17T06:32:08.473Z,24.16
2022-08-17T06:34:37.447Z,24.29
2022-08-17T06:37:03.932Z,24.64
2022-08-17T06:39:54.286Z,25.13
2022-08-17T06:43:02.269Z,25.61
2022-08-17T06:45:15.538Z,26.07
2022-08-17T06:47:47.811Z,26.56
2022-08-17T06:50:23.958Z,26.66
2022-08-17T06:52:57.694Z,26.54
2022-08-17T06:55:38.261Z,26.62
2022-08-17T06:58:12.395Z,27.02
2022-08-17T07:00:46.168Z,27.20
2022-08-17T07:03:16.455Z,27.36
2022-08-17T07:06:05.680Z,27.62
2022-08-17T07:09:02.405Z,27.71
2022-08-17T07:11:38.111Z,27.83
2022-08-17T07:14:37.914Z,27.89
2022-08-17T07:17:10.423Z,28.18
2022-08-17T07:19:42.365Z,28.33
2022-08-17T07:23:00.678Z,28.11
2022-08-17T07:25:28.607Z,27.94
2022-08-17T07:28:00.269Z,27.70
2022-08-17T07:30:46.853Z,27.48
2022-08-17T07:33:26.964Z,27.45
2022-08-17T07:35:54.025Z,27.52
2022-08-17T07:38:26.863Z,27.46
2022-08-17T07:41:03.603Z,27.31
2022-08-17T07:43:31.164Z,27.38
2022-08-17T07:46:39.579Z,27.40
2022-08-17T07:49:08.864Z,27.24
2022-08-17T07:51:45.657Z,27.14
2022-08-17T07:54:15.437Z,27.08
2022-08-17T07:56:46.410Z,27.06
2022-08-17T07:59:15.583Z,27.02
2022-08-17T08:01:49.034Z,26.94
2022-08-17T08:04:59.714Z,26.86
2022-08-17T08:07:25.592Z,26.66
2022-08-17T08:10:13.776Z,26.51
2022-08-17T08:12:48.935Z,26.45
2022-08-17T08:15:33.347Z,26.38
2022-08-17T08:18:03.625Z,26.32
2022-08-17T08:20:52.306Z,26.25
2022-08-17T08:23:33.398Z,26.22
2022-08-17T08:26:10.201Z,26.17
2022-08-17T08:29:10.662Z,26.06
2022-08-17T08:31:50.812Z,25.89
2022-08-17T08:34:44.571Z,25.90
2022-08-17T08:37:53.428Z,25.99
2022-08-17T08:40:20.007Z,26.14
2022-08-17T08:42:56.739Z,26.23
2022-08-17T08:45:32.327Z,26.20
2022-08-17T08:48:12.761Z,26.19
2022-08-17T08:51:15.311Z,26.13
2022-08-17T08:54:12.300Z,26.21
2022-08-17T08:57:05.009Z,26.29
2022-08-17T08:59:41.794Z,26.26
2022-08-17T09:02:34.626Z,26.33
2022-08-17T09:05:31.270Z,26.33
2022-08-17T09:08:24.508Z,26.33
2022-08-17T09:11:04.275Z,26.46
2022-08-17T09:14:00.838Z,26.40
2022-08-17T09:16:37.675Z,26.48
2022-08-17T09:19:30.373Z,26.60
2022-08-17T09:22:53.020Z,26.72
2022-08-17T09:25:23.645Z,26.83
2022-08-17T09:28:04.069Z,26.89
2022-08-17T09:31:08.598Z,26.87
2022-08-17T09:33:42.487Z,26.92
2022-08-17T09:36:29.287Z,26.93
2022-08-17T09:39:10.174Z,26.91
2022-08-17T09:41:59.973Z,26.94
2022-08-17T09:44:38.612Z,26.90
2022-08-17T09:47:30.610Z,26.91
2022-08-17T09:50:06.060Z,26.91
2022-08-17T09:52:32.711Z,26.87
2022-08-17T09:55:01.062Z,26.91
2022-08-17T09:57:52.118Z,27.11
2022-08-17T10:00:28.460Z,27.17
2022-08-17T10:03:21.125Z,27.21
2022-08-17T10:06:21.804Z,27.21
2022-08-17T10:09:09.818Z,27.30
2022-08-17T10:12:03.426Z,27.34
2022-08-17T10:14:44.431Z,27.37
2022-08-17T10:17:53.997Z,27.40
2022-08-17T10:20:22.124Z,27.37
2022-08-17T10:23:16.338Z,27.47
2022-08-17T10:26:04.623Z,27.53
2022-08-17T10:28:43.511Z,27.56
2022-08-17T10:31:34.155Z,27.60
2022-08-17T10:34:07.524Z,27.56
2022-08-17T10:37:22.031Z,27.49
2022-08-17T10:40:35.572Z,27.45
2022-08-17T10:43:33.349Z,27.40
2022-08-17T10:46:10.363Z,27.39
2022-08-17T10:49:20.988Z,27.31
2022-08-17T10:51:48.699Z,27.25
2022-08-17T10:54:25.332Z,27.19
2022-08-17T10:56:54.644Z,27.22
2022-08-17T10:59:36.423Z,27.23
2022-08-17T11:02:12.631Z,27.25
2022-08-17T11:05:00.523Z,27.21
2022-08-17T11:07:55.338Z,27.19
2022-08-17T11:11:04.204Z,27.29
2022-08-17T11:13:40.744Z,27.32
2022-08-17T11:16:36.306Z,27.35
2022-08-17T11:19:31.748Z,27.34
2022-08-17T11:22:19.283Z,27.36
2022-08-17T11:24:51.333Z,27.39
2022-08-17T11:27:31.411Z,27.39
2022-08-17T11:30:05.453Z,27.43
2022-08-17T11:32:47.508Z,27.53
2022-08-17T11:35:20.667Z,27.66
2022-08-17T11:38:02.853Z,27.74
2022-08-17T11:41:07.077Z,27.77
2022-08-17T11:43:55.485Z,27.90
2022-08-17T11:47:13.377Z,27.93
2022-08-17T11:50:01.474Z,28.06
2022-08-17T11:52:47.086Z,28.12
2022-08-17T11:55:39.617Z,28.12
2022-08-17T11:58:31.205Z,28.12
2022-08-17T12:01:23.152Z,28.20
2022-08-17T12:04:00.764Z,28.19
2022-08-17T12:06:30.886Z,28.18
2022-08-17T12:09:02.371Z,28.15
2022-08-17T12:11:58.767Z,28.06
2022-08-17T12:15:08.062Z,28.04
2022-08-17T12:17:40.555Z,28.09
2022-08-17T12:20:21.464Z,28.09
2022-08-17T12:23:04.882Z,28.07
2022-08-17T12:25:43.179Z,28.07
2022-08-17T12:28:22.795Z,27.98
2022-08-17T12:30:51.931Z,27.87
2022-08-17T12:33:25.618Z,27.74
2022-08-17T12:36:05.930Z,27.61
2022-08-17T12:38:35.215Z,27.52
2022-08-17T12:41:22.524Z,27.51
2022-08-17T12:44:19.461Z,27.46
2022-08-17T12:47:29.476Z,27.47
2022-08-17T12:50:29.621Z,27.42
2022-08-17T12:53:01.764Z,27.38
2022-08-17T12:55:38.372Z,27.36
2022-08-17T12:58:08.917Z,27.31
2022-08-17T13:00:47.404Z,27.26
2022-08-17T13:03:23.887Z,27.23
2022-08-17T13:05:53.150Z,27.20
2022-08-17T13:08:30.700Z,27.21
2022-08-17T13:11:01.458Z,27.21
2022-08-17T13:13:31.199Z,27.20
2022-08-17T13:16:04.518Z,27.20
2022-08-17T13:18:34.140Z,27.20
2022-08-17T13:21:01.240Z,27.23
2022-08-17T13:23:32.344Z,27.17
2022-08-17T13:26:15.996Z,27.13
2022-08-17T13:28:51.746Z,27.10
2022-08-17T13:31:30.438Z,27.12
2022-08-17T13:34:25.452Z,27.07
2022-08-17T13:37:32.671Z,26.98
2022-08-17T13:40:23.157Z,26.89
2022-08-17T13:42:53.387Z,26.77
2022-08-17T13:45:34.897Z,26.61
2022-08-17T13:48:13.967Z,26.52
2022-08-17T13:51:02.501Z,26.39
2022-08-17T13:53:36.880Z,26.31
2022-08-17T13:56:37.689Z,26.25
2022-08-17T13:59:00.175Z,26.19
2022-08-17T14:01:34.473Z,26.11
2022-08-17T14:04:06.379Z,25.98
2022-08-17T14:06:52.862Z,25.90
2022-08-17T14:09:41.022Z,25.88
2022-08-17T14:12:15.378Z,25.89
2022-08-17T14:14:43.050Z,25.82
2022-08-17T14:17:12.221Z,25.80
2022-08-17T14:19:39.715Z,25.73
2022-08-17T14:22:18.679Z,25.62
2022-08-17T14:24:45.774Z,25.50
2022-08-17T14:27:12.503Z,25.45
2022-08-17T14:29:41.145Z,25.41
2022-08-17T14:32:17.124Z,25.39
2022-08-17T14:34:45.103Z,25.40
2022-08-17T14:37:12.275Z,25.29
2022-08-17T14:39:38.914Z,25.23
2022-08-17T14:42:05.634Z,25.13
2022-08-17T14:44:32.599Z,25.07
2022-08-17T14:46:59.195Z,25.03
2022-08-17T14:49:26.149Z,24.93
2022-08-17T14:51:52.922Z,24.96
2022-08-17T14:54:33.302Z,24.90
2022-08-17T14:57:23.679Z,24.96
2022-08-17T14:59:54.572Z,25.07
2022-08-17T15:02:30.234Z,25.10
2022-08-17T15:05:02.856Z,25.01
2022-08-17T15:07:30.966Z,24.93
2022-08-17T15:10:00.394Z,24.89
2022-08-17T15:12:32.858Z,24.90
2022-08-17T15:15:02.030Z,24.97
2022-08-17T15:17:51.223Z,25.08
2022-08-17T15:20:19.518Z,25.24
2022-08-17T15:22:49.780Z,25.30
2022-08-17T15:25:36.506Z,25.44
2022-08-17T15:28:03.289Z,25.49
2022-08-17T15:30:31.004Z,25.48
2022-08-17T15:32:59.316Z,25.45
2022-08-17T15:35:30.173Z,25.37
2022-08-17T15:38:09.877Z,25.28
2022-08-17T15:40:41.953Z,25.17
2022-08-17T15:43:15.350Z,25.08
2022-08-17T15:45:42.886Z,25.10
2022-08-17T15:48:09.740Z,25.10
2022-08-17T15:50:36.501Z,25.11
2022-08-17T15:53:04.789Z,25.14
2022-08-17T15:55:32.434Z,25.17
2022-08-17T15:57:59.825Z,25.16
2022-08-17T16:00:29.248Z,25.16
2022-08-17T16:03:45.711Z,25.11
2022-08-17T16:05:46.497Z,25.18
2022-08-17T16:08:20.120Z,25.24
2022-08-17T16:10:48.514Z,25.22
2022-08-17T16:13:17.511Z,25.24
2022-08-17T16:15:47.777Z,25.23
2022-08-17T16:18:24.814Z,25.16
2022-08-17T16:20:51.516Z,25.13
2022-08-17T16:23:20.191Z,25.05
2022-08-17T16:25:53.327Z,25.03
2022-08-17T16:28:21.868Z,25.05
2022-08-17T16:30:48.676Z,25.08
2022-08-17T16:33:16.697Z,25.17
2022-08-17T16:35:43.311Z,25.26
2022-08-17T16:38:10.915Z,25.31
2022-08-17T16:40:38.033Z,25.35
2022-08-17T16:43:10.631Z,25.25
2022-08-17T16:45:40.638Z,25.27
2022-08-17T16:48:08.199Z,25.25
2022-08-17T16:50:35.480Z,25.28
2022-08-17T16:53:07.521Z,25.29
2022-08-17T16:55:35.762Z,25.22
2022-08-17T16:58:06.367Z,25.23
2022-08-17T17:00:34.198Z,25.28
2022-08-17T17:03:19.049Z,25.25
2022-08-17T17:05:59.270Z,25.15
2022-08-17T17:08:34.741Z,25.15
2022-08-17T17:11:09.646Z,25.13
2022-08-17T17:13:44.514Z,25.02
2022-08-17T17:16:21.784Z,24.99
2022-08-17T17:19:06.960Z,24.94
2022-08-17T17:22:14.502Z,24.88
2022-08-17T17:25:16.839Z,24.73
2022-08-17T17:28:34.571Z,24.70
2022-08-17T17:31:21.071Z,24.67
2022-08-17T17:33:48.325Z,24.57
2022-08-17T17:36:20.616Z,24.47
2022-08-17T17:38:53.110Z,24.43
2022-08-17T17:41:32.522Z,24.46
2022-08-17T17:44:13.204Z,24.49
2022-08-17T17:46:53.160Z,24.49
2022-08-17T17:49:20.592Z,24.48
2022-08-17T17:52:12.324Z,24.44
2022-08-17T17:55:01.284Z,24.43
2022-08-17T17:57:58.977Z,24.44
2022-08-17T18:00:37.864Z,24.40
2022-08-17T18:03:39.903Z,24.39
2022-08-17T18:06:16.312Z,24.40
2022-08-17T18:08:52.875Z,24.38
2022-08-17T18:11:43.652Z,24.30
2022-08-17T18:14:14.807Z,24.32
2022-08-17T18:16:42.797Z,24.28
2022-08-17T18:19:20.621Z,24.27
2022-08-17T18:22:04.035Z,24.21
2022-08-17T18:24:39.346Z,24.15
2022-08-17T18:27:31.178Z,24.04
2022-08-17T18:30:03.379Z,23.90
2022-08-17T18:32:35.741Z,23.79
2022-08-17T18:35:02.437Z,23.67
2022-08-17T18:37:32.947Z,23.58
2022-08-17T18:40:14.241Z,23.50
2022-08-17T18:42:41.002Z,23.49
2022-08-17T18:45:07.795Z,23.42
2022-08-17T18:47:34.443Z,23.38
2022-08-17T18:50:21.959Z,23.35
2022-08-17T18:52:48.703Z,23.29
2022-08-17T18:55:20.133Z,23.27
2022-08-17T18:57:56.971Z,23.24
2022-08-17T19:00:26.659Z,23.23
2022-08-17T19:02:56.828Z,23.17
2022-08-17T19:05:35.696Z,23.15
2022-08-17T19:08:35.503Z,23.11
2022-08-17T19:11:27.033Z,23.05
2022-08-17T19:14:07.858Z,23.00
2022-08-17T19:16:59.277Z,22.96
2022-08-17T19:19:49.320Z,22.89
2022-08-17T19:22:29.087Z,22.84
2022-08-17T19:25:10.902Z,22.79
2022-08-17T19:27:49.989Z,22.72
2022-08-17T19:30:17.407Z,22.67
2022-08-17T19:32:44.047Z,22.62
2022-08-17T19:35:17.108Z,22.58
2022-08-17T19:38:12.767Z,22.53
2022-08-17T19:40:52.966Z,22.50
2022-08-17T19:43:48.413Z,22.48
2022-08-17T19:46:26.184Z,22.48
2022-08-17T19:48:58.865Z,22.44
2022-08-17T19:51:34.252Z,22.40
2022-08-17T19:54:20.478Z,22.37
2022-08-17T19:57:01.905Z,22.29
2022-08-17T19:59:56.581Z,22.24
2022-08-17T20:03:06.099Z,22.20
2022-08-17T20:06:08.586Z,22.14
2022-08-17T20:08:29.038Z,22.14
2022-08-17T20:10:59.159Z,22.11
2022-08-17T20:13:35.424Z,22.12
2022-08-17T20:16:03.099Z,22.12
2022-08-17T20:18:37.875Z,22.09
2022-08-17T20:21:20.054Z,22.09
2022-08-17T20:23:59.699Z,22.05
2022-08-17T20:26:55.213Z,22.04
2022-08-17T20:29:40.233Z,22.00
2022-08-17T20:32:23.939Z,22.01
2022-08-17T20:35:05.627Z,21.97
2022-08-17T20:37:35.432Z,21.92
2022-08-17T20:40:05.786Z,21.89
2022-08-17T20:42:33.873Z,21.85
2022-08-17T20:45:21.694Z,21.80
2022-08-17T20:48:18.653Z,21.76
2022-08-17T20:50:45.329Z,21.69
2022-08-17T20:53:48.065Z,21.66
2022-08-17T20:56:44.687Z,21.61
2022-08-17T20:59:27.536Z,21.55
2022-08-17T21:02:12.452Z,21.58
2022-08-17T21:04:52.870Z,21.59
2022-08-17T21:07:25.729Z,21.57
2022-08-17T21:09:52.625Z,21.55
2022-08-17T21:12:39.548Z,21.50
2022-08-17T21:15:30.993Z,21.43
2022-08-17T21:18:00.730Z,21.37
2022-08-17T21:20:59.655Z,21.36
2022-08-17T21:23:26.332Z,21.32
2022-08-17T21:26:17.399Z,21.29
2022-08-17T21:29:00.338Z,21.30
2022-08-17T21:31:43.182Z,21.32
2022-08-17T21:34:15.772Z,21.31
2022-08-17T21:36:45.195Z,21.33
2022-08-17T21:39:21.464Z,21.32
2022-08-17T21:41:54.396Z,21.32
2022-08-17T21:44:48.068Z,21.35
2022-08-17T21:47:26.640Z,21.35
2022-08-17T21:49:55.092Z,21.36
2022-08-17T21:52:27.392Z,21.34
2022-08-17T21:54:58.518Z,21.36
2022-08-17T21:57:28.383Z,21.34
2022-08-17T21:59:57.622Z,21.32
2022-08-17T22:02:26.838Z,21.29
2022-08-17T22:05:07.464Z,21.27
2022-08-17T22:07:47.093Z,21.20
2022-08-17T22:10:44.501Z,21.20
2022-08-17T22:13:16.600Z,21.15
2022-08-17T22:15:47.268Z,21.08
2022-08-17T22:18:19.870Z,21.02
2022-08-17T22:20:51.646Z,20.97
2022-08-17T22:23:59.501Z,20.91
2022-08-17T22:26:48.484Z,20.85
2022-08-17T22:29:45.947Z,20.79
2022-08-17T22:32:31.636Z,20.74
2022-08-17T22:35:28.915Z,20.71
2022-08-17T22:37:57.006Z,20.65
2022-08-17T22:40:30.501Z,20.65
2022-08-17T22:42:59.224Z,20.66
2022-08-17T22:45:28.358Z,20.63
2022-08-17T22:47:58.749Z,20.60
2022-08-17T22:50:28.475Z,20.63
2022-08-17T22:53:32.312Z,20.64
2022-08-17T22:56:17.686Z,20.60
2022-08-17T22:59:14.333Z,20.59
2022-08-17T23:01:42.176Z,20.60
2022-08-17T23:04:12.192Z,20.63
2022-08-17T23:06:42.388Z,20.63
2022-08-17T23:09:09.338Z,20.66
2022-08-17T23:11:48.668Z,20.68
2022-08-17T23:14:20.963Z,20.70
2022-08-17T23:16:50.125Z,20.71
2022-08-17T23:19:19.848Z,20.69
2022-08-17T23:21:47.331Z,20.65
2022-08-17T23:24:24.489Z,20.64
2022-08-17T23:26:51.460Z,20.63
2022-08-17T23:29:20.576Z,20.62
2022-08-17T23:31:49.208Z,20.59
2022-08-17T23:34:18.444Z,20.58
2022-08-17T23:36:50.705Z,20.62
2022-08-17T23:39:27.303Z,20.63
2022-08-17T23:42:03.366Z,20.65
2022-08-17T23:44:31.298Z,20.71
2022-08-17T23:46:57.810Z,20.71
2022-08-17T23:49:25.162Z,20.71
2022-08-17T23:51:54.731Z,20.71
2022-08-17T23:54:43.874Z,20.70
2022-08-17T23:57:17.030Z,20.70
2022-08-17T23:59:44.223Z,20.68
